Terminal Aerodrome Forecast
Issued by NWS

Home | Current Version | Previous Version | Text Only | Print | Product List | Glossary On
Versions: 1 2 3 4 5 6 7 8 9 10 11 12 13 14 15 16 17 18 19
071
FTUS45 KTFX 241720
TAFLWT
TAF
KLWT 241720Z 2418/2518 VRB04KT P6SM BKN015 OVC025
      TEMPO 2418/2421 5SM -SN BR BKN010
     FM242100 30006KT P6SM OVC025
      TEMPO 2421/2424 5SM -SN BR OVC025
     FM251000 26008KT P6SM BKN030=

USA.gov is the U.S. government's official web portal to all federal, state and local government web resources and services.